sensor_id;sensor_type;location;lat;lon;timestamp;temperature;humidity
22235;DHT22;11286;45.596;5.284;2023-06-22T00:02:15;23.00;99.90
22235;DHT22;11286;45.596;5.284;2023-06-22T00:04:41;22.90;99.90
22235;DHT22;11286;45.596;5.284;2023-06-22T00:07:06;22.90;99.90
22235;DHT22;11286;45.596;5.284;2023-06-22T00:09:33;22.90;99.90
22235;DHT22;11286;45.596;5.284;2023-06-22T00:11:58;23.10;99.90
22235;DHT22;11286;45.596;5.284;2023-06-22T00:14:24;22.90;99.90
22235;DHT22;11286;45.596;5.284;2023-06-22T00:16:50;22.90;99.90
22235;DHT22;11286;45.596;5.284;2023-06-22T00:19:24;22.90;99.90
22235;DHT22;11286;45.596;5.284;2023-06-22T00:21:50;22.80;99.90
22235;DHT22;11286;45.596;5.284;2023-06-22T00:24:20;22.90;99.90
22235;DHT22;11286;45.596;5.284;2023-06-22T00:26:46;23.50;99.90
22235;DHT22;11286;45.596;5.284;2023-06-22T00:29:12;22.80;99.90
22235;DHT22;11286;45.596;5.284;2023-06-22T00:31:38;22.80;99.90
22235;DHT22;11286;45.596;5.284;2023-06-22T00:34:03;22.80;99.90
22235;DHT22;11286;45.596;5.284;2023-06-22T00:36:32;22.80;99.90
22235;DHT22;11286;45.596;5.284;2023-06-22T00:38:57;22.70;99.90
22235;DHT22;11286;45.596;5.284;2023-06-22T00:41:23;22.70;99.90
22235;DHT22;11286;45.596;5.284;2023-06-22T00:43:48;22.70;99.90
22235;DHT22;11286;45.596;5.284;2023-06-22T00:46:14;22.50;99.90
22235;DHT22;11286;45.596;5.284;2023-06-22T00:48:40;22.50;99.90
22235;DHT22;11286;45.596;5.284;2023-06-22T00:51:10;22.50;99.90
22235;DHT22;11286;45.596;5.284;2023-06-22T00:53:35;22.50;99.90
22235;DHT22;11286;45.596;5.284;2023-06-22T00:56:02;22.20;99.90
22235;DHT22;11286;45.596;5.284;2023-06-22T00:58:29;22.10;99.90
22235;DHT22;11286;45.596;5.284;2023-06-22T01:00:55;22.10;99.90
22235;DHT22;11286;45.596;5.284;2023-06-22T01:03:22;21.90;99.90
22235;DHT22;11286;45.596;5.284;2023-06-22T01:05:48;22.00;99.90
22235;DHT22;11286;45.596;5.284;2023-06-22T01:08:51;21.90;99.90
22235;DHT22;11286;45.596;5.284;2023-06-22T01:11:35;21.80;99.90
22235;DHT22;11286;45.596;5.284;2023-06-22T01:14:12;21.90;99.90
22235;DHT22;11286;45.596;5.284;2023-06-22T01:16:41;22.00;99.90
22235;DHT22;11286;45.596;5.284;2023-06-22T01:19:29;22.00;99.90
22235;DHT22;11286;45.596;5.284;2023-06-22T01:22:01;21.80;99.90
22235;DHT22;11286;45.596;5.284;2023-06-22T01:24:32;21.70;99.90
22235;DHT22;11286;45.596;5.284;2023-06-22T01:29:27;21.90;99.90
22235;DHT22;11286;45.596;5.284;2023-06-22T01:31:55;21.80;99.90
22235;DHT22;11286;45.596;5.284;2023-06-22T01:34:21;21.90;99.90
22235;DHT22;11286;45.596;5.284;2023-06-22T01:36:49;22.00;99.90
22235;DHT22;11286;45.596;5.284;2023-06-22T01:39:15;21.90;99.90
22235;DHT22;11286;45.596;5.284;2023-06-22T01:41:42;21.90;99.90
22235;DHT22;11286;45.596;5.284;2023-06-22T01:44:09;21.90;99.90
22235;DHT22;11286;45.596;5.284;2023-06-22T01:46:35;21.70;99.90
22235;DHT22;11286;45.596;5.284;2023-06-22T01:49:02;21.60;99.90
22235;DHT22;11286;45.596;5.284;2023-06-22T01:51:28;21.60;99.90
22235;DHT22;11286;45.596;5.284;2023-06-22T01:53:54;21.80;99.90
22235;DHT22;11286;45.596;5.284;2023-06-22T01:56:20;21.90;99.90
22235;DHT22;11286;45.596;5.284;2023-06-22T01:58:57;21.90;99.90
22235;DHT22;11286;45.596;5.284;2023-06-22T02:01:29;21.70;99.90
22235;DHT22;11286;45.596;5.284;2023-06-22T02:04:08;21.60;99.90
22235;DHT22;11286;45.596;5.284;2023-06-22T02:06:39;21.70;99.90
22235;DHT22;11286;45.596;5.284;2023-06-22T02:09:12;21.60;99.90
22235;DHT22;11286;45.596;5.284;2023-06-22T02:11:41;21.60;99.90
22235;DHT22;11286;45.596;5.284;2023-06-22T02:14:08;21.80;99.90
22235;DHT22;11286;45.596;5.284;2023-06-22T02:16:34;21.70;99.90
22235;DHT22;11286;45.596;5.284;2023-06-22T02:19:02;21.60;99.90
22235;DHT22;11286;45.596;5.284;2023-06-22T02:21:31;21.50;99.90
22235;DHT22;11286;45.596;5.284;2023-06-22T02:23:57;21.50;99.90
22235;DHT22;11286;45.596;5.284;2023-06-22T02:26:25;21.50;99.90
22235;DHT22;11286;45.596;5.284;2023-06-22T02:28:51;21.40;99.90
22235;DHT22;11286;45.596;5.284;2023-06-22T02:31:17;21.20;99.90
22235;DHT22;11286;45.596;5.284;2023-06-22T02:33:43;21.20;99.90
22235;DHT22;11286;45.596;5.284;2023-06-22T02:36:09;21.30;99.90
22235;DHT22;11286;45.596;5.284;2023-06-22T02:38:40;21.30;99.90
22235;DHT22;11286;45.596;5.284;2023-06-22T02:41:17;21.20;99.90
22235;DHT22;11286;45.596;5.284;2023-06-22T02:43:44;21.20;99.90
22235;DHT22;11286;45.596;5.284;2023-06-22T02:46:11;21.40;99.90
22235;DHT22;11286;45.596;5.284;2023-06-22T02:48:38;21.40;99.90
22235;DHT22;11286;45.596;5.284;2023-06-22T02:51:04;21.40;99.90
22235;DHT22;11286;45.596;5.284;2023-06-22T02:53:30;21.30;99.90
22235;DHT22;11286;45.596;5.284;2023-06-22T02:55:55;21.30;99.90
22235;DHT22;11286;45.596;5.284;2023-06-22T02:58:21;21.30;99.90
22235;DHT22;11286;45.596;5.284;2023-06-22T03:00:47;21.80;99.90
22235;DHT22;11286;45.596;5.284;2023-06-22T03:03:12;21.20;99.90
22235;DHT22;11286;45.596;5.284;2023-06-22T03:05:38;21.10;99.90
22235;DHT22;11286;45.596;5.284;2023-06-22T03:08:05;21.30;99.90
22235;DHT22;11286;45.596;5.284;2023-06-22T03:10:31;21.30;99.90
22235;DHT22;11286;45.596;5.284;2023-06-22T03:12:56;21.30;99.90
22235;DHT22;11286;45.596;5.284;2023-06-22T03:15:22;21.30;99.90
22235;DHT22;11286;45.596;5.284;2023-06-22T03:17:48;21.00;99.90
22235;DHT22;11286;45.596;5.284;2023-06-22T03:20:13;21.00;99.90
22235;DHT22;11286;45.596;5.284;2023-06-22T03:22:40;21.10;99.90
22235;DHT22;11286;45.596;5.284;2023-06-22T03:25:07;21.00;99.90
22235;DHT22;11286;45.596;5.284;2023-06-22T03:27:38;21.10;99.90
22235;DHT22;11286;45.596;5.284;2023-06-22T03:30:04;21.10;99.90
22235;DHT22;11286;45.596;5.284;2023-06-22T03:32:30;21.00;99.90
22235;DHT22;11286;45.596;5.284;2023-06-22T03:34:56;21.10;99.90
22235;DHT22;11286;45.596;5.284;2023-06-22T03:37:24;21.20;99.90
22235;DHT22;11286;45.596;5.284;2023-06-22T03:39:51;21.20;99.90
22235;DHT22;11286;45.596;5.284;2023-06-22T03:42:17;21.30;99.90
22235;DHT22;11286;45.596;5.284;2023-06-22T03:44:42;21.40;99.90
22235;DHT22;11286;45.596;5.284;2023-06-22T03:47:08;21.40;99.90
22235;DHT22;11286;45.596;5.284;2023-06-22T03:49:34;21.40;99.90
22235;DHT22;11286;45.596;5.284;2023-06-22T03:52:00;21.20;99.90
22235;DHT22;11286;45.596;5.284;2023-06-22T03:54:28;21.30;99.90
22235;DHT22;11286;45.596;5.284;2023-06-22T03:56:53;21.30;99.90
22235;DHT22;11286;45.596;5.284;2023-06-22T03:59:19;21.30;99.90
22235;DHT22;11286;45.596;5.284;2023-06-22T04:01:44;21.20;99.90
22235;DHT22;11286;45.596;5.284;2023-06-22T04:04:10;21.40;99.90
22235;DHT22;11286;45.596;5.284;2023-06-22T04:06:36;21.50;99.90
22235;DHT22;11286;45.596;5.284;2023-06-22T04:09:01;21.40;99.90
22235;DHT22;11286;45.596;5.284;2023-06-22T04:11:27;21.50;99.90
22235;DHT22;11286;45.596;5.284;2023-06-22T04:13:53;21.50;99.90
22235;DHT22;11286;45.596;5.284;2023-06-22T04:16:19;21.60;99.90
22235;DHT22;11286;45.596;5.284;2023-06-22T04:18:44;21.50;99.90
22235;DHT22;11286;45.596;5.284;2023-06-22T04:21:10;21.50;99.90
22235;DHT22;11286;45.596;5.284;2023-06-22T04:23:36;21.70;99.90
22235;DHT22;11286;45.596;5.284;2023-06-22T04:26:01;21.70;99.90
22235;DHT22;11286;45.596;5.284;2023-06-22T04:28:27;21.70;99.90
22235;DHT22;11286;45.596;5.284;2023-06-22T04:30:53;21.70;99.90
22235;DHT22;11286;45.596;5.284;2023-06-22T04:33:23;21.80;99.90
22235;DHT22;11286;45.596;5.284;2023-06-22T04:35:49;21.70;99.90
22235;DHT22;11286;45.596;5.284;2023-06-22T04:38:14;21.70;99.90
22235;DHT22;11286;45.596;5.284;2023-06-22T04:40:40;21.90;99.90
22235;DHT22;11286;45.596;5.284;2023-06-22T04:43:06;21.90;99.90
22235;DHT22;11286;45.596;5.284;2023-06-22T04:45:32;21.80;99.90
22235;DHT22;11286;45.596;5.284;2023-06-22T04:47:58;21.70;99.90
22235;DHT22;11286;45.596;5.284;2023-06-22T04:50:24;21.90;99.90
22235;DHT22;11286;45.596;5.284;2023-06-22T04:52:50;22.10;99.90
22235;DHT22;11286;45.596;5.284;2023-06-22T04:55:16;21.90;99.90
22235;DHT22;11286;45.596;5.284;2023-06-22T04:57:47;21.90;99.90
22235;DHT22;11286;45.596;5.284;2023-06-22T05:00:17;21.80;99.90
22235;DHT22;11286;45.596;5.284;2023-06-22T05:02:44;21.80;99.90
22235;DHT22;11286;45.596;5.284;2023-06-22T05:05:11;21.90;99.90
22235;DHT22;11286;45.596;5.284;2023-06-22T05:07:40;22.00;99.90
22235;DHT22;11286;45.596;5.284;2023-06-22T05:10:09;21.80;99.90
22235;DHT22;11286;45.596;5.284;2023-06-22T05:12:35;21.60;99.90
22235;DHT22;11286;45.596;5.284;2023-06-22T05:15:01;21.60;99.90
22235;DHT22;11286;45.596;5.284;2023-06-22T05:17:27;21.60;99.90
22235;DHT22;11286;45.596;5.284;2023-06-22T05:19:53;21.60;99.90
22235;DHT22;11286;45.596;5.284;2023-06-22T05:22:19;21.60;99.90
22235;DHT22;11286;45.596;5.284;2023-06-22T05:24:45;21.50;99.90
22235;DHT22;11286;45.596;5.284;2023-06-22T05:27:10;21.50;99.90
22235;DHT22;11286;45.596;5.284;2023-06-22T05:29:37;21.50;99.90
22235;DHT22;11286;45.596;5.284;2023-06-22T05:32:03;21.40;99.90
22235;DHT22;11286;45.596;5.284;2023-06-22T05:34:29;21.50;99.90
22235;DHT22;11286;45.596;5.284;2023-06-22T05:36:54;21.60;99.90
22235;DHT22;11286;45.596;5.284;2023-06-22T05:39:20;21.70;99.90
22235;DHT22;11286;45.596;5.284;2023-06-22T05:41:46;21.90;99.90
22235;DHT22;11286;45.596;5.284;2023-06-22T05:44:12;21.90;99.90
22235;DHT22;11286;45.596;5.284;2023-06-22T05:46:43;21.90;99.90
22235;DHT22;11286;45.596;5.284;2023-06-22T05:49:14;21.70;99.90
22235;DHT22;11286;45.596;5.284;2023-06-22T05:51:40;21.80;99.90
22235;DHT22;11286;45.596;5.284;2023-06-22T05:54:06;21.80;99.90
22235;DHT22;11286;45.596;5.284;2023-06-22T05:56:33;21.90;99.90
22235;DHT22;11286;45.596;5.284;2023-06-22T05:58:59;22.00;99.90
22235;DHT22;11286;45.596;5.284;2023-06-22T06:01:24;21.90;99.90
22235;DHT22;11286;45.596;5.284;2023-06-22T06:03:51;21.90;99.90
22235;DHT22;11286;45.596;5.284;2023-06-22T06:06:18;22.00;99.90
22235;DHT22;11286;45.596;5.284;2023-06-22T06:08:46;22.20;99.90
22235;DHT22;11286;45.596;5.284;2023-06-22T06:11:12;22.30;99.90
22235;DHT22;11286;45.596;5.284;2023-06-22T06:13:38;22.30;99.90
22235;DHT22;11286;45.596;5.284;2023-06-22T06:16:03;22.30;99.90
22235;DHT22;11286;45.596;5.284;2023-06-22T06:18:29;22.50;99.90
22235;DHT22;11286;45.596;5.284;2023-06-22T06:20:55;22.50;99.90
22235;DHT22;11286;45.596;5.284;2023-06-22T06:23:20;22.60;99.90
22235;DHT22;11286;45.596;5.284;2023-06-22T06:25:46;22.30;99.90
22235;DHT22;11286;45.596;5.284;2023-06-22T06:28:11;22.40;99.90
22235;DHT22;11286;45.596;5.284;2023-06-22T06:30:37;22.10;99.90
22235;DHT22;11286;45.596;5.284;2023-06-22T06:33:03;21.90;99.90
22235;DHT22;11286;45.596;5.284;2023-06-22T06:35:34;22.10;99.90
22235;DHT22;11286;45.596;5.284;2023-06-22T06:38:00;22.30;99.90
22235;DHT22;11286;45.596;5.284;2023-06-22T06:40:25;22.30;99.90
22235;DHT22;11286;45.596;5.284;2023-06-22T06:42:51;22.30;99.90
22235;DHT22;11286;45.596;5.284;2023-06-22T06:45:19;22.30;99.90
22235;DHT22;11286;45.596;5.284;2023-06-22T06:47:46;22.30;99.90
22235;DHT22;11286;45.596;5.284;2023-06-22T06:50:12;22.20;99.90
22235;DHT22;11286;45.596;5.284;2023-06-22T06:52:38;21.80;99.90
22235;DHT22;11286;45.596;5.284;2023-06-22T06:55:04;22.20;99.90
22235;DHT22;11286;45.596;5.284;2023-06-22T06:57:33;22.50;99.90
22235;DHT22;11286;45.596;5.284;2023-06-22T06:59:59;22.70;99.90
22235;DHT22;11286;45.596;5.284;2023-06-22T07:02:26;22.50;99.90
22235;DHT22;11286;45.596;5.284;2023-06-22T07:04:53;22.80;99.90
22235;DHT22;11286;45.596;5.284;2023-06-22T07:07:20;23.10;99.90
22235;DHT22;11286;45.596;5.284;2023-06-22T07:09:46;23.10;99.90
22235;DHT22;11286;45.596;5.284;2023-06-22T07:12:12;23.60;99.90
22235;DHT22;11286;45.596;5.284;2023-06-22T07:14:37;24.10;99.90
22235;DHT22;11286;45.596;5.284;2023-06-22T07:17:06;24.50;99.90
22235;DHT22;11286;45.596;5.284;2023-06-22T07:19:33;24.70;99.90
22235;DHT22;11286;45.596;5.284;2023-06-22T07:21:58;24.80;99.90
22235;DHT22;11286;45.596;5.284;2023-06-22T07:24:24;25.00;99.90
22235;DHT22;11286;45.596;5.284;2023-06-22T07:26:50;25.10;99.90
22235;DHT22;11286;45.596;5.284;2023-06-22T07:29:20;24.70;99.90
22235;DHT22;11286;45.596;5.284;2023-06-22T07:31:50;24.10;99.90
22235;DHT22;11286;45.596;5.284;2023-06-22T07:34:17;23.90;99.90
22235;DHT22;11286;45.596;5.284;2023-06-22T07:36:43;23.80;99.90
22235;DHT22;11286;45.596;5.284;2023-06-22T07:39:09;23.80;99.90
22235;DHT22;11286;45.596;5.284;2023-06-22T07:41:34;23.90;99.90
22235;DHT22;11286;45.596;5.284;2023-06-22T07:44:00;24.00;99.90
22235;DHT22;11286;45.596;5.284;2023-06-22T07:46:25;24.20;99.90
22235;DHT22;11286;45.596;5.284;2023-06-22T07:48:51;24.40;99.90
22235;DHT22;11286;45.596;5.284;2023-06-22T07:51:17;24.30;99.90
22235;DHT22;11286;45.596;5.284;2023-06-22T07:53:43;24.50;99.90
22235;DHT22;11286;45.596;5.284;2023-06-22T07:56:12;24.60;99.90
22235;DHT22;11286;45.596;5.284;2023-06-22T07:58:38;24.50;99.90
22235;DHT22;11286;45.596;5.284;2023-06-22T08:01:03;24.20;99.90
22235;DHT22;11286;45.596;5.284;2023-06-22T08:03:30;24.20;99.90
22235;DHT22;11286;45.596;5.284;2023-06-22T08:05:55;24.40;99.90
22235;DHT22;11286;45.596;5.284;2023-06-22T08:08:21;24.50;99.90
22235;DHT22;11286;45.596;5.284;2023-06-22T08:10:47;24.80;99.90
22235;DHT22;11286;45.596;5.284;2023-06-22T08:13:12;24.70;99.90
22235;DHT22;11286;45.596;5.284;2023-06-22T08:15:38;24.90;99.90
22235;DHT22;11286;45.596;5.284;2023-06-22T08:18:05;25.10;99.90
22235;DHT22;11286;45.596;5.284;2023-06-22T08:20:30;25.30;99.90
22235;DHT22;11286;45.596;5.284;2023-06-22T08:22:56;25.40;99.90
22235;DHT22;11286;45.596;5.284;2023-06-22T08:25:25;25.40;99.90
22235;DHT22;11286;45.596;5.284;2023-06-22T08:27:51;25.10;99.90
22235;DHT22;11286;45.596;5.284;2023-06-22T08:30:17;25.40;99.90
22235;DHT22;11286;45.596;5.284;2023-06-22T08:32:44;25.70;99.90
22235;DHT22;11286;45.596;5.284;2023-06-22T08:35:10;25.70;99.90
22235;DHT22;11286;45.596;5.284;2023-06-22T08:37:36;26.00;99.90
22235;DHT22;11286;45.596;5.284;2023-06-22T08:40:03;25.90;99.90
22235;DHT22;11286;45.596;5.284;2023-06-22T08:42:34;25.90;99.90
22235;DHT22;11286;45.596;5.284;2023-06-22T08:45:00;26.20;99.90
22235;DHT22;11286;45.596;5.284;2023-06-22T08:47:28;26.50;99.90
22235;DHT22;11286;45.596;5.284;2023-06-22T08:49:54;26.80;99.90
22235;DHT22;11286;45.596;5.284;2023-06-22T08:52:20;27.10;99.90
22235;DHT22;11286;45.596;5.284;2023-06-22T08:54:46;27.20;99.90
22235;DHT22;11286;45.596;5.284;2023-06-22T08:57:11;27.40;99.90
22235;DHT22;11286;45.596;5.284;2023-06-22T08:59:37;27.40;99.90
22235;DHT22;11286;45.596;5.284;2023-06-22T09:02:03;27.70;99.90
22235;DHT22;11286;45.596;5.284;2023-06-22T09:04:29;27.60;99.90
22235;DHT22;11286;45.596;5.284;2023-06-22T09:06:54;27.80;99.90
22235;DHT22;11286;45.596;5.284;2023-06-22T09:09:21;27.80;99.90
22235;DHT22;11286;45.596;5.284;2023-06-22T09:11:47;27.60;99.90
22235;DHT22;11286;45.596;5.284;2023-06-22T09:14:13;27.20;99.90
22235;DHT22;11286;45.596;5.284;2023-06-22T09:16:38;27.00;99.90
22235;DHT22;11286;45.596;5.284;2023-06-22T09:19:04;27.00;99.90
22235;DHT22;11286;45.596;5.284;2023-06-22T09:21:30;27.10;99.90
22235;DHT22;11286;45.596;5.284;2023-06-22T09:23:55;27.30;99.90
22235;DHT22;11286;45.596;5.284;2023-06-22T09:26:22;27.40;99.90
22235;DHT22;11286;45.596;5.284;2023-06-22T09:28:49;27.60;99.90
22235;DHT22;11286;45.596;5.284;2023-06-22T09:31:15;27.70;99.90
22235;DHT22;11286;45.596;5.284;2023-06-22T09:33:41;27.60;99.90
22235;DHT22;11286;45.596;5.284;2023-06-22T09:36:07;27.30;99.90
22235;DHT22;11286;45.596;5.284;2023-06-22T09:38:36;27.10;99.90
22235;DHT22;11286;45.596;5.284;2023-06-22T09:41:02;27.00;99.90
22235;DHT22;11286;45.596;5.284;2023-06-22T09:43:28;27.00;99.90
22235;DHT22;11286;45.596;5.284;2023-06-22T09:45:53;27.00;99.90
22235;DHT22;11286;45.596;5.284;2023-06-22T09:48:19;27.10;99.90
22235;DHT22;11286;45.596;5.284;2023-06-22T09:50:45;27.30;99.90
22235;DHT22;11286;45.596;5.284;2023-06-22T09:53:10;27.40;99.90
22235;DHT22;11286;45.596;5.284;2023-06-22T09:55:36;27.60;99.90
22235;DHT22;11286;45.596;5.284;2023-06-22T09:58:02;27.70;99.90
22235;DHT22;11286;45.596;5.284;2023-06-22T10:00:27;27.70;99.90
22235;DHT22;11286;45.596;5.284;2023-06-22T10:02:53;27.50;99.90
22235;DHT22;11286;45.596;5.284;2023-06-22T10:05:19;27.20;99.90
22235;DHT22;11286;45.596;5.284;2023-06-22T10:07:44;27.10;99.90
22235;DHT22;11286;45.596;5.284;2023-06-22T10:10:11;27.00;99.90
22235;DHT22;11286;45.596;5.284;2023-06-22T10:12:41;27.30;99.90
22235;DHT22;11286;45.596;5.284;2023-06-22T10:15:08;27.50;99.90
22235;DHT22;11286;45.596;5.284;2023-06-22T10:17:33;27.70;99.90
22235;DHT22;11286;45.596;5.284;2023-06-22T10:20:00;27.60;99.90
22235;DHT22;11286;45.596;5.284;2023-06-22T10:22:26;27.40;99.90
22235;DHT22;11286;45.596;5.284;2023-06-22T10:24:51;27.10;99.90
22235;DHT22;11286;45.596;5.284;2023-06-22T10:27:17;27.10;99.90
22235;DHT22;11286;45.596;5.284;2023-06-22T10:29:43;27.10;99.90
22235;DHT22;11286;45.596;5.284;2023-06-22T10:32:09;27.20;99.90
22235;DHT22;11286;45.596;5.284;2023-06-22T10:34:34;27.50;99.90
22235;DHT22;11286;45.596;5.284;2023-06-22T10:37:00;27.90;99.90
22235;DHT22;11286;45.596;5.284;2023-06-22T10:39:26;28.10;99.90
22235;DHT22;11286;45.596;5.284;2023-06-22T10:41:51;28.40;99.90
22235;DHT22;11286;45.596;5.284;2023-06-22T10:44:17;28.40;99.90
22235;DHT22;11286;45.596;5.284;2023-06-22T10:46:43;28.20;99.90
22235;DHT22;11286;45.596;5.284;2023-06-22T10:49:08;28.10;99.90
22235;DHT22;11286;45.596;5.284;2023-06-22T10:51:34;28.20;99.90
22235;DHT22;11286;45.596;5.284;2023-06-22T10:53:59;28.10;99.90
22235;DHT22;11286;45.596;5.284;2023-06-22T10:56:25;28.20;99.90
22235;DHT22;11286;45.596;5.284;2023-06-22T10:58:51;28.40;99.90
22235;DHT22;11286;45.596;5.284;2023-06-22T11:01:17;28.40;99.90
22235;DHT22;11286;45.596;5.284;2023-06-22T11:03:42;28.30;99.90
22235;DHT22;11286;45.596;5.284;2023-06-22T11:06:08;28.20;99.90
22235;DHT22;11286;45.596;5.284;2023-06-22T11:08:33;28.50;99.90
22235;DHT22;11286;45.596;5.284;2023-06-22T11:10:59;28.30;99.90
22235;DHT22;11286;45.596;5.284;2023-06-22T11:13:25;28.00;99.90
22235;DHT22;11286;45.596;5.284;2023-06-22T11:15:50;28.30;99.90
22235;DHT22;11286;45.596;5.284;2023-06-22T11:18:16;27.90;99.90
22235;DHT22;11286;45.596;5.284;2023-06-22T11:20:42;27.80;99.90
22235;DHT22;11286;45.596;5.284;2023-06-22T11:23:07;27.90;99.90
22235;DHT22;11286;45.596;5.284;2023-06-22T11:25:33;27.90;99.90
22235;DHT22;11286;45.596;5.284;2023-06-22T11:28:04;28.30;99.90
22235;DHT22;11286;45.596;5.284;2023-06-22T11:30:30;28.60;99.90
22235;DHT22;11286;45.596;5.284;2023-06-22T11:32:58;29.00;99.90
22235;DHT22;11286;45.596;5.284;2023-06-22T11:35:23;28.90;99.90
22235;DHT22;11286;45.596;5.284;2023-06-22T11:37:49;28.80;99.90
22235;DHT22;11286;45.596;5.284;2023-06-22T11:40:15;28.70;99.90
22235;DHT22;11286;45.596;5.284;2023-06-22T11:42:40;28.60;99.90
22235;DHT22;11286;45.596;5.284;2023-06-22T11:45:07;28.50;99.90
22235;DHT22;11286;45.596;5.284;2023-06-22T11:47:32;28.30;99.90
22235;DHT22;11286;45.596;5.284;2023-06-22T11:49:58;28.80;99.90
22235;DHT22;11286;45.596;5.284;2023-06-22T11:52:23;28.50;99.90
22235;DHT22;11286;45.596;5.284;2023-06-22T11:54:49;28.40;99.90
22235;DHT22;11286;45.596;5.284;2023-06-22T11:57:14;28.20;99.90
22235;DHT22;11286;45.596;5.284;2023-06-22T11:59:40;27.80;99.90
22235;DHT22;11286;45.596;5.284;2023-06-22T12:02:06;27.20;99.90
22235;DHT22;11286;45.596;5.284;2023-06-22T12:04:33;27.20;99.90
22235;DHT22;11286;45.596;5.284;2023-06-22T12:06:59;27.10;99.90
22235;DHT22;11286;45.596;5.284;2023-06-22T12:09:24;27.20;99.90
22235;DHT22;11286;45.596;5.284;2023-06-22T12:11:50;26.70;99.90
22235;DHT22;11286;45.596;5.284;2023-06-22T12:14:15;27.00;99.90
22235;DHT22;11286;45.596;5.284;2023-06-22T12:16:41;27.00;99.90
22235;DHT22;11286;45.596;5.284;2023-06-22T12:19:08;26.90;99.90
22235;DHT22;11286;45.596;5.284;2023-06-22T12:21:33;26.40;99.90
22235;DHT22;11286;45.596;5.284;2023-06-22T12:23:59;26.50;99.90
22235;DHT22;11286;45.596;5.284;2023-06-22T12:26:24;26.60;99.90
22235;DHT22;11286;45.596;5.284;2023-06-22T12:28:50;26.30;99.90
22235;DHT22;11286;45.596;5.284;2023-06-22T12:31:15;26.90;99.90
22235;DHT22;11286;45.596;5.284;2023-06-22T12:33:41;27.20;99.90
22235;DHT22;11286;45.596;5.284;2023-06-22T12:36:07;27.60;99.90
22235;DHT22;11286;45.596;5.284;2023-06-22T12:38:32;27.30;99.90
22235;DHT22;11286;45.596;5.284;2023-06-22T12:40:58;26.90;99.90
22235;DHT22;11286;45.596;5.284;2023-06-22T12:43:24;26.60;99.90
22235;DHT22;11286;45.596;5.284;2023-06-22T12:45:49;26.30;99.90
22235;DHT22;11286;45.596;5.284;2023-06-22T12:48:15;26.20;99.90
22235;DHT22;11286;45.596;5.284;2023-06-22T12:50:42;26.10;99.90
22235;DHT22;11286;45.596;5.284;2023-06-22T12:53:07;25.90;99.90
22235;DHT22;11286;45.596;5.284;2023-06-22T12:55:33;25.80;99.90
22235;DHT22;11286;45.596;5.284;2023-06-22T12:57:59;25.90;99.90
22235;DHT22;11286;45.596;5.284;2023-06-22T13:00:24;25.60;99.90
22235;DHT22;11286;45.596;5.284;2023-06-22T13:02:50;25.10;99.90
22235;DHT22;11286;45.596;5.284;2023-06-22T13:05:15;25.20;99.90
22235;DHT22;11286;45.596;5.284;2023-06-22T13:07:41;24.90;99.90
22235;DHT22;11286;45.596;5.284;2023-06-22T13:10:08;24.70;99.90
22235;DHT22;11286;45.596;5.284;2023-06-22T13:12:34;24.00;99.90
22235;DHT22;11286;45.596;5.284;2023-06-22T13:14:59;23.80;99.90
22235;DHT22;11286;45.596;5.284;2023-06-22T13:17:25;23.70;99.90
22235;DHT22;11286;45.596;5.284;2023-06-22T13:19:51;23.90;99.90
22235;DHT22;11286;45.596;5.284;2023-06-22T13:22:33;23.90;99.90
22235;DHT22;11286;45.596;5.284;2023-06-22T13:25:07;23.70;99.90
22235;DHT22;11286;45.596;5.284;2023-06-22T13:27:33;23.30;99.90
22235;DHT22;11286;45.596;5.284;2023-06-22T13:29:58;23.20;99.90
22235;DHT22;11286;45.596;5.284;2023-06-22T13:32:24;22.80;99.90
22235;DHT22;11286;45.596;5.284;2023-06-22T13:34:50;23.50;99.90
22235;DHT22;11286;45.596;5.284;2023-06-22T13:37:16;19.60;99.90
22235;DHT22;11286;45.596;5.284;2023-06-22T13:39:42;19.30;99.90
22235;DHT22;11286;45.596;5.284;2023-06-22T13:42:07;19.20;99.90
22235;DHT22;11286;45.596;5.284;2023-06-22T13:44:33;18.90;99.90
22235;DHT22;11286;45.596;5.284;2023-06-22T13:46:59;19.30;99.90
22235;DHT22;11286;45.596;5.284;2023-06-22T13:49:26;20.10;99.90
22235;DHT22;11286;45.596;5.284;2023-06-22T13:51:51;21.10;99.90
22235;DHT22;11286;45.596;5.284;2023-06-22T13:54:17;21.40;99.90
22235;DHT22;11286;45.596;5.284;2023-06-22T13:56:42;21.00;99.90
22235;DHT22;11286;45.596;5.284;2023-06-22T13:59:08;20.90;99.90
22235;DHT22;11286;45.596;5.284;2023-06-22T14:01:37;20.50;99.90
22235;DHT22;11286;45.596;5.284;2023-06-22T14:04:04;20.40;99.90
22235;DHT22;11286;45.596;5.284;2023-06-22T14:06:29;20.10;99.90
22235;DHT22;11286;45.596;5.284;2023-06-22T14:08:55;19.70;99.90
22235;DHT22;11286;45.596;5.284;2023-06-22T14:11:21;19.80;99.90
22235;DHT22;11286;45.596;5.284;2023-06-22T14:13:47;19.70;99.90
22235;DHT22;11286;45.596;5.284;2023-06-22T14:16:12;19.80;99.90
22235;DHT22;11286;45.596;5.284;2023-06-22T14:18:38;19.90;99.90
22235;DHT22;11286;45.596;5.284;2023-06-22T14:21:04;19.70;99.90
22235;DHT22;11286;45.596;5.284;2023-06-22T14:23:29;19.70;99.90
22235;DHT22;11286;45.596;5.284;2023-06-22T14:25:55;19.40;99.90
22235;DHT22;11286;45.596;5.284;2023-06-22T14:28:20;19.20;99.90
22235;DHT22;11286;45.596;5.284;2023-06-22T14:30:46;19.30;99.90
22235;DHT22;11286;45.596;5.284;2023-06-22T14:33:12;19.50;99.90
22235;DHT22;11286;45.596;5.284;2023-06-22T14:35:38;19.70;99.90
22235;DHT22;11286;45.596;5.284;2023-06-22T14:38:03;19.70;99.90
22235;DHT22;11286;45.596;5.284;2023-06-22T14:40:29;19.90;99.90
22235;DHT22;11286;45.596;5.284;2023-06-22T14:42:54;20.00;99.90
22235;DHT22;11286;45.596;5.284;2023-06-22T14:45:22;19.90;99.90
22235;DHT22;11286;45.596;5.284;2023-06-22T14:47:48;19.80;99.90
22235;DHT22;11286;45.596;5.284;2023-06-22T14:50:13;19.90;99.90
22235;DHT22;11286;45.596;5.284;2023-06-22T14:52:39;19.90;99.90
22235;DHT22;11286;45.596;5.284;2023-06-22T14:55:05;19.60;99.90
22235;DHT22;11286;45.596;5.284;2023-06-22T14:57:31;19.90;99.90
22235;DHT22;11286;45.596;5.284;2023-06-22T14:59:56;20.20;99.90
22235;DHT22;11286;45.596;5.284;2023-06-22T15:02:22;20.20;99.90
22235;DHT22;11286;45.596;5.284;2023-06-22T15:04:48;20.60;99.90
22235;DHT22;11286;45.596;5.284;2023-06-22T15:07:14;20.40;99.90
22235;DHT22;11286;45.596;5.284;2023-06-22T15:09:40;20.10;99.90
22235;DHT22;11286;45.596;5.284;2023-06-22T15:12:08;20.40;99.90
22235;DHT22;11286;45.596;5.284;2023-06-22T15:14:40;20.70;99.90
22235;DHT22;11286;45.596;5.284;2023-06-22T15:17:07;20.60;99.90
22235;DHT22;11286;45.596;5.284;2023-06-22T15:19:36;20.40;99.90
22235;DHT22;11286;45.596;5.284;2023-06-22T15:22:04;20.30;99.90
22235;DHT22;11286;45.596;5.284;2023-06-22T15:24:30;20.80;99.90
22235;DHT22;11286;45.596;5.284;2023-06-22T15:26:56;20.80;99.90
22235;DHT22;11286;45.596;5.284;2023-06-22T15:29:21;20.50;99.90